Time;durP1;ratioP1;P1;durP2;ratioP2;P2;SDS_P1;SDS_P2;PMS_P1;PMS_P2;Temp;Humidity;BMP_temperature;BMP_pressure;BME280_temperature;BME280_humidity;BME280_pressure;Samples;Min_cycle;Max_cycle;Signal;HPM_P1;HPM_P2
2023/01/24 00:00:39;;;;;;;5.83;3.73;;;;;;;;;;2106560;28;20020;-60
2023/01/24 00:01:39;;;;;;;6.72;4.03;;;;;;;;;;2106783;28;20245;-62
2023/01/24 00:02:39;;;;;;;3.90;3.50;;;;;;;;;;2107349;28;20024;-62
2023/01/24 00:03:39;;;;;;;7.27;3.83;;;;;;;;;;2107415;28;20043;-62
2023/01/24 00:04:40;;;;;;;4.28;3.88;;;;;;;;;;2107272;28;20252;-62
2023/01/24 00:05:41;;;;;;;4.88;3.72;;;;;;;;;;2106544;28;20023;-61
2023/01/24 00:06:41;;;;;;;4.25;3.80;;;;;;;;;;2106312;28;20575;-61
2023/01/24 00:07:41;;;;;;;9.45;3.67;;;;;;;;;;2106483;28;20032;-62
2023/01/24 00:08:41;;;;;;;6.97;3.53;;;;;;;;;;2107314;28;20024;-62
2023/01/24 00:09:42;;;;;;;5.90;3.38;;;;;;;;;;2107432;28;20688;-62
2023/01/24 00:10:42;;;;;;;5.60;3.78;;;;;;;;;;2107229;28;20442;-61
2023/01/24 00:11:42;;;;;;;3.80;3.40;;;;;;;;;;2107371;28;20028;-62
2023/01/24 00:12:42;;;;;;;6.07;4.00;;;;;;;;;;2107242;28;20023;-61
2023/01/24 00:13:42;;;;;;;4.65;3.45;;;;;;;;;;2107391;28;20477;-62
2023/01/24 00:14:43;;;;;;;4.13;3.17;;;;;;;;;;2107258;28;20027;-62
2023/01/24 00:15:43;;;;;;;4.93;3.17;;;;;;;;;;2107309;28;20455;-62
2023/01/24 00:16:43;;;;;;;4.03;3.13;;;;;;;;;;2106702;28;20051;-62
2023/01/24 00:17:43;;;;;;;5.63;3.55;;;;;;;;;;2106644;28;20024;-62
2023/01/24 00:18:43;;;;;;;10.65;4.18;;;;;;;;;;2106626;28;20050;-62
2023/01/24 00:19:43;;;;;;;5.38;3.63;;;;;;;;;;2107248;28;20481;-62
2023/01/24 00:20:44;;;;;;;5.37;3.80;;;;;;;;;;2107261;28;20036;-62
2023/01/24 00:21:44;;;;;;;8.87;3.73;;;;;;;;;;2107259;28;20283;-62
2023/01/24 00:22:44;;;;;;;4.32;3.05;;;;;;;;;;2107232;28;20240;-61
2023/01/24 00:23:45;;;;;;;3.60;3.10;;;;;;;;;;2106601;28;20024;-62
2023/01/24 00:24:46;;;;;;;4.85;3.13;;;;;;;;;;2106700;28;20268;-61
2023/01/24 00:25:46;;;;;;;5.97;3.70;;;;;;;;;;2107188;28;20439;-62
2023/01/24 00:26:46;;;;;;;3.63;3.00;;;;;;;;;;2107024;28;20459;-62
2023/01/24 00:27:46;;;;;;;5.25;3.65;;;;;;;;;;2107149;28;20657;-61
2023/01/24 00:28:46;;;;;;;3.75;3.30;;;;;;;;;;2107155;28;20447;-62
2023/01/24 00:29:47;;;;;;;5.55;2.80;;;;;;;;;;2107223;28;20028;-62
2023/01/24 00:30:47;;;;;;;4.60;3.17;;;;;;;;;;2107039;28;20047;-62
2023/01/24 00:31:47;;;;;;;4.27;3.20;;;;;;;;;;2107191;28;20110;-62
2023/01/24 00:32:47;;;;;;;4.03;3.33;;;;;;;;;;2107137;28;20681;-62
2023/01/24 00:33:47;;;;;;;3.17;2.83;;;;;;;;;;2107184;28;20077;-62
2023/01/24 00:34:47;;;;;;;4.47;3.17;;;;;;;;;;2107064;28;20294;-62
2023/01/24 00:35:49;;;;;;;3.40;3.10;;;;;;;;;;2106721;28;20023;-62
2023/01/24 00:36:49;;;;;;;5.55;3.83;;;;;;;;;;2106540;28;20024;-61
2023/01/24 00:37:49;;;;;;;4.90;3.22;;;;;;;;;;2107248;28;20103;-61
2023/01/24 00:38:49;;;;;;;4.72;3.08;;;;;;;;;;2106267;28;20020;-60
2023/01/24 00:39:49;;;;;;;5.67;3.10;;;;;;;;;;2106409;28;20028;-61
2023/01/24 00:40:50;;;;;;;3.38;2.88;;;;;;;;;;2107316;28;20248;-61
2023/01/24 00:41:50;;;;;;;5.78;3.30;;;;;;;;;;2107087;28;20051;-61
2023/01/24 00:42:51;;;;;;;5.63;3.22;;;;;;;;;;2107165;28;20051;-61
2023/01/24 00:43:51;;;;;;;4.18;3.33;;;;;;;;;;2107097;28;20519;-61
2023/01/24 00:44:52;;;;;;;4.97;3.38;;;;;;;;;;2107138;28;20020;-61
2023/01/24 00:45:52;;;;;;;4.53;3.30;;;;;;;;;;2107127;28;20093;-61
2023/01/24 00:46:52;;;;;;;4.55;3.38;;;;;;;;;;2107153;28;20031;-61
2023/01/24 00:47:52;;;;;;;8.27;3.80;;;;;;;;;;2106943;28;20040;-61
2023/01/24 00:48:52;;;;;;;4.05;3.63;;;;;;;;;;2107452;28;20021;-61
2023/01/24 00:49:52;;;;;;;5.38;3.70;;;;;;;;;;2107070;28;20344;-61
2023/01/24 00:50:53;;;;;;;5.80;4.22;;;;;;;;;;2107120;28;20026;-61
2023/01/24 00:51:53;;;;;;;5.60;3.88;;;;;;;;;;2107019;28;20416;-61
2023/01/24 00:52:53;;;;;;;6.10;3.97;;;;;;;;;;2107120;28;20046;-61
2023/01/24 00:53:53;;;;;;;4.75;3.30;;;;;;;;;;2107167;28;20017;-61
2023/01/24 00:54:53;;;;;;;4.70;3.25;;;;;;;;;;2107125;28;20065;-61
2023/01/24 00:55:54;;;;;;;8.45;3.30;;;;;;;;;;2107106;28;20091;-61
2023/01/24 00:56:54;;;;;;;6.32;3.17;;;;;;;;;;2106617;28;20024;-61
2023/01/24 00:57:55;;;;;;;4.60;3.40;;;;;;;;;;2106451;28;20024;-61
2023/01/24 00:58:55;;;;;;;6.03;3.63;;;;;;;;;;2107156;28;20699;-61
2023/01/24 00:59:55;;;;;;;3.88;3.33;;;;;;;;;;2107149;28;20020;-61
2023/01/24 01:00:56;;;;;;;3.87;3.33;;;;;;;;;;2108785;28;20046;-61
2023/01/24 01:01:56;;;;;;;4.90;3.80;;;;;;;;;;2108060;28;20240;-61
2023/01/24 01:02:56;;;;;;;5.10;3.73;;;;;;;;;;2108130;28;20529;-61
2023/01/24 01:03:57;;;;;;;4.47;3.70;;;;;;;;;;2108794;28;20628;-61
2023/01/24 01:04:57;;;;;;;5.15;3.50;;;;;;;;;;2108576;28;20240;-61
2023/01/24 01:06:02;;;;;;;5.07;4.00;;;;;;;;;;2108035;28;20107;-61
2023/01/24 01:07:02;;;;;;;5.88;3.88;;;;;;;;;;2108228;28;20509;-61
2023/01/24 01:08:02;;;;;;;4.35;3.70;;;;;;;;;;2108674;28;20028;-61
2023/01/24 01:09:02;;;;;;;5.15;3.70;;;;;;;;;;2108689;28;20470;-61
2023/01/24 01:10:03;;;;;;;3.83;3.42;;;;;;;;;;2108763;28;20104;-61
2023/01/24 01:11:03;;;;;;;4.32;3.65;;;;;;;;;;2108677;28;20473;-61
2023/01/24 01:12:03;;;;;;;5.57;3.83;;;;;;;;;;2108842;28;20026;-61
2023/01/24 01:13:04;;;;;;;4.95;3.88;;;;;;;;;;2108645;28;20020;-62
2023/01/24 01:14:05;;;;;;;4.40;3.35;;;;;;;;;;2108020;28;20475;-61
2023/01/24 01:15:05;;;;;;;3.40;3.10;;;;;;;;;;2108038;28;20024;-61
2023/01/24 01:16:07;;;;;;;3.88;3.03;;;;;;;;;;2108648;28;20241;-61
2023/01/24 01:17:07;;;;;;;5.30;3.63;;;;;;;;;;2108630;28;20056;-61
2023/01/24 01:18:07;;;;;;;5.00;3.92;;;;;;;;;;2108518;28;20375;-61
2023/01/24 01:19:08;;;;;;;9.50;4.63;;;;;;;;;;2108612;28;20039;-62
2023/01/24 01:20:08;;;;;;;6.80;4.28;;;;;;;;;;2108677;28;20016;-60
2023/01/24 01:21:11;;;;;;;4.63;3.70;;;;;;;;;;2108488;28;20027;-61
2023/01/24 01:22:11;;;;;;;3.83;3.40;;;;;;;;;;2108598;28;20068;-62
2023/01/24 01:23:11;;;;;;;4.63;3.45;;;;;;;;;;2107993;28;20024;-61
2023/01/24 01:24:11;;;;;;;4.57;3.80;;;;;;;;;;2108255;28;20016;-61
2023/01/24 01:25:11;;;;;;;5.50;3.78;;;;;;;;;;2107941;28;20323;-63
2023/01/24 01:26:19;;;;;;;3.97;3.58;;;;;;;;;;2108340;28;20371;-62
2023/01/24 01:27:20;;;;;;;4.43;3.88;;;;;;;;;;2108009;28;20068;-62
2023/01/24 01:28:20;;;;;;;6.32;3.92;;;;;;;;;;2099444;28;20426;-62
2023/01/24 01:29:20;;;;;;;4.85;3.67;;;;;;;;;;2107848;28;20509;-62
2023/01/24 01:30:20;;;;;;;6.18;3.80;;;;;;;;;;2108563;28;20042;-62
2023/01/24 01:31:20;;;;;;;5.95;3.60;;;;;;;;;;2108514;28;20061;-62
2023/01/24 01:32:21;;;;;;;5.55;4.00;;;;;;;;;;2108568;28;20020;-62
2023/01/24 01:33:21;;;;;;;5.25;4.00;;;;;;;;;;2108495;28;20053;-62
2023/01/24 01:34:21;;;;;;;4.60;3.83;;;;;;;;;;2108063;28;20077;-61
2023/01/24 01:35:21;;;;;;;9.45;3.97;;;;;;;;;;2107822;28;20020;-60
2023/01/24 01:36:21;;;;;;;6.25;4.25;;;;;;;;;;2108344;28;20021;-61
2023/01/24 01:37:21;;;;;;;5.10;4.45;;;;;;;;;;2108433;28;20028;-61
2023/01/24 01:38:24;;;;;;;6.35;4.35;;;;;;;;;;2108334;28;20028;-61
2023/01/24 01:39:24;;;;;;;7.68;4.45;;;;;;;;;;2108350;28;20095;-61
2023/01/24 01:40:24;;;;;;;8.25;4.63;;;;;;;;;;2108471;28;20032;-61
2023/01/24 01:41:24;;;;;;;6.22;4.32;;;;;;;;;;2108283;28;20020;-61
2023/01/24 01:42:25;;;;;;;4.30;3.90;;;;;;;;;;2107826;28;20027;-61
2023/01/24 01:43:26;;;;;;;6.07;4.25;;;;;;;;;;2107861;28;20034;-61
2023/01/24 01:44:41;;;;;;;4.93;3.90;;;;;;;;;;2108383;28;20056;-61
2023/01/24 01:45:43;;;;;;;6.85;4.32;;;;;;;;;;2108102;28;20024;-61
2023/01/24 01:46:44;;;;;;;6.15;4.57;;;;;;;;;;2107862;28;20103;-61
2023/01/24 01:47:44;;;;;;;6.32;4.60;;;;;;;;;;2108331;28;20093;-61
2023/01/24 01:48:46;;;;;;;6.93;5.18;;;;;;;;;;2108427;28;20077;-61
2023/01/24 01:49:53;;;;;;;8.52;5.70;;;;;;;;;;2108366;28;20103;-61
2023/01/24 01:51:05;;;;;;;7.55;5.32;;;;;;;;;;2108501;28;20012;-62
2023/01/24 01:52:05;;;;;;;6.53;5.53;;;;;;;;;;2108346;28;20015;-61
2023/01/24 01:53:05;;;;;;;8.18;5.35;;;;;;;;;;2108409;28;20048;-61
2023/01/24 01:54:11;;;;;;;6.78;4.82;;;;;;;;;;2108195;28;20103;-59
2023/01/24 01:55:14;;;;;;;8.30;4.90;;;;;;;;;;2107677;28;20497;-61
2023/01/24 01:56:25;;;;;;;7.75;4.25;;;;;;;;;;2107710;28;20149;-59
2023/01/24 01:57:29;;;;;;;5.53;4.93;;;;;;;;;;2107934;28;20069;-60
2023/01/24 01:58:29;;;;;;;5.45;4.38;;;;;;;;;;2107691;28;20024;-60
2023/01/24 01:59:35;;;;;;;7.00;4.60;;;;;;;;;;2108357;28;20020;-61
2023/01/24 02:00:35;;;;;;;6.63;4.70;;;;;;;;;;2108232;28;20028;-61
2023/01/24 02:01:35;;;;;;;6.95;4.70;;;;;;;;;;2108312;28;20012;-60
2023/01/24 02:02:36;;;;;;;5.13;4.22;;;;;;;;;;2107588;28;20028;-59
2023/01/24 02:03:39;;;;;;;5.72;5.03;;;;;;;;;;2107581;28;20016;-59
2023/01/24 02:04:41;;;;;;;6.47;4.88;;;;;;;;;;2107716;28;20028;-58
2023/01/24 02:05:41;;;;;;;5.97;4.85;;;;;;;;;;2107785;28;20028;-58
2023/01/24 02:06:54;;;;;;;6.82;5.25;;;;;;;;;;2108273;28;20016;-59
2023/01/24 02:08:03;;;;;;;9.40;5.55;;;;;;;;;;2108311;28;20078;-58
2023/01/24 02:09:04;;;;;;;7.88;5.55;;;;;;;;;;2107539;28;20016;-60
2023/01/24 02:10:04;;;;;;;5.90;5.30;;;;;;;;;;2107644;28;20033;-59
2023/01/24 02:12:37;;;;;;;10.93;5.80;;;;;;;;;;2107694;28;20463;-60
2023/01/24 02:13:43;;;;;;;6.28;5.55;;;;;;;;;;2107527;28;20047;-61
2023/01/24 02:16:03;;;;;;;8.00;5.57;;;;;;;;;;2107880;28;20032;-61
2023/01/24 02:17:03;;;;;;;10.18;5.68;;;;;;;;;;2108182;28;20269;-61
2023/01/24 02:18:03;;;;;;;7.15;5.55;;;;;;;;;;2108338;28;20027;-61
2023/01/24 02:19:05;;;;;;;7.35;5.55;;;;;;;;;;2108281;28;20332;-61
2023/01/24 02:20:20;;;;;;;8.27;5.80;;;;;;;;;;2108065;28;20047;-65
2023/01/24 02:21:20;;;;;;;6.38;5.65;;;;;;;;;;2107359;28;20406;-62
2023/01/24 02:22:26;;;;;;;7.97;6.28;;;;;;;;;;2107744;28;20040;-63
2023/01/24 02:23:38;;;;;;;8.38;6.30;;;;;;;;;;2108098;28;20077;-62
2023/01/24 02:24:41;;;;;;;7.13;5.35;;;;;;;;;;2108134;28;20020;-63
2023/01/24 02:25:44;;;;;;;8.82;6.07;;;;;;;;;;2108052;28;20052;-62
2023/01/24 02:26:44;;;;;;;8.25;6.20;;;;;;;;;;2108310;28;20059;-62
2023/01/24 02:27:45;;;;;;;8.10;6.30;;;;;;;;;;2108061;28;20032;-62
2023/01/24 02:28:48;;;;;;;7.68;5.65;;;;;;;;;;2108101;28;20030;-62
2023/01/24 02:29:48;;;;;;;9.52;6.55;;;;;;;;;;2108172;28;20063;-63
2023/01/24 02:30:48;;;;;;;9.63;6.35;;;;;;;;;;2108192;28;20044;-62
2023/01/24 02:31:52;;;;;;;8.13;5.43;;;;;;;;;;2108033;28;20020;-62
2023/01/24 02:32:52;;;;;;;7.07;5.57;;;;;;;;;;2107452;28;20812;-63
2023/01/24 02:33:52;;;;;;;6.25;5.20;;;;;;;;;;2107281;28;20016;-63
2023/01/24 02:34:52;;;;;;;6.07;5.20;;;;;;;;;;2108039;28;20016;-63
2023/01/24 02:36:11;;;;;;;9.02;5.80;;;;;;;;;;2107983;28;20414;-62
2023/01/24 02:37:12;;;;;;;6.55;5.00;;;;;;;;;;2108022;28;20081;-61
2023/01/24 02:38:15;;;;;;;7.95;5.93;;;;;;;;;;2107996;28;20020;-61
2023/01/24 02:39:18;;;;;;;6.47;5.25;;;;;;;;;;2107235;28;20587;-61
2023/01/24 02:40:18;;;;;;;8.30;5.53;;;;;;;;;;2107391;28;20020;-61
2023/01/24 02:41:20;;;;;;;7.07;5.40;;;;;;;;;;2107984;28;20020;-61
2023/01/24 02:42:23;;;;;;;6.65;5.30;;;;;;;;;;2107932;28;20024;-61
2023/01/24 02:43:26;;;;;;;7.22;5.50;;;;;;;;;;2107866;28;20027;-61
2023/01/24 02:44:30;;;;;;;8.57;5.57;;;;;;;;;;2107348;28;20023;-61
2023/01/24 02:45:31;;;;;;;7.25;5.57;;;;;;;;;;2107287;28;20410;-61
2023/01/24 02:46:35;;;;;;;8.63;5.45;;;;;;;;;;2107272;28;20016;-61
2023/01/24 02:47:38;;;;;;;6.70;5.43;;;;;;;;;;2107241;28;20535;-62
2023/01/24 02:48:38;;;;;;;6.07;5.05;;;;;;;;;;2107917;28;20085;-61
2023/01/24 02:49:38;;;;;;;9.40;5.90;;;;;;;;;;2107938;28;20451;-61
2023/01/24 02:53:30;;;;;;;8.15;5.82;;;;;;;;;;2090254;28;20048;-62
2023/01/24 02:54:30;;;;;;;9.63;6.07;;;;;;;;;;2102234;28;20028;-62
2023/01/24 02:55:30;;;;;;;12.05;7.43;;;;;;;;;;2107901;28;20503;-61
2023/01/24 02:58:07;;;;;;;9.18;6.78;;;;;;;;;;2107831;28;20471;-61
2023/01/24 02:59:07;;;;;;;8.15;6.05;;;;;;;;;;2107892;28;20463;-61
2023/01/24 03:00:08;;;;;;;8.27;6.07;;;;;;;;;;2107823;28;20016;-62
2023/01/24 03:01:08;;;;;;;7.72;5.93;;;;;;;;;;2107176;28;20027;-61
2023/01/24 03:02:09;;;;;;;7.22;5.80;;;;;;;;;;2107226;28;20024;-62
2023/01/24 03:03:09;;;;;;;9.00;6.40;;;;;;;;;;2107713;28;20018;-62
2023/01/24 03:04:11;;;;;;;8.20;6.20;;;;;;;;;;2107902;28;20045;-62
2023/01/24 03:05:11;;;;;;;8.80;5.35;;;;;;;;;;2107059;28;20022;-61
2023/01/24 03:06:12;;;;;;;9.07;6.03;;;;;;;;;;2107334;28;20027;-61
2023/01/24 03:07:12;;;;;;;8.45;6.20;;;;;;;;;;2107098;28;20451;-61
2023/01/24 03:08:13;;;;;;;6.82;5.20;;;;;;;;;;2107267;28;20398;-62
2023/01/24 03:09:19;;;;;;;7.50;5.85;;;;;;;;;;2107713;28;20060;-61
2023/01/24 03:10:19;;;;;;;8.27;5.53;;;;;;;;;;2107928;28;20435;-61
2023/01/24 03:11:19;;;;;;;9.50;5.65;;;;;;;;;;2107716;28;20065;-62
2023/01/24 03:34:50;;;;;;;6.15;5.60;;;;;;;;;;2107528;28;20028;-62
2023/01/24 03:35:53;;;;;;;9.77;5.65;;;;;;;;;;2107791;28;20028;-62
2023/01/24 03:36:53;;;;;;;6.75;5.35;;;;;;;;;;2106799;28;20051;-62
2023/01/24 03:40:31;;;;;;;9.52;5.65;;;;;;;;;;2107451;28;20386;-62
2023/01/24 03:41:31;;;;;;;7.95;5.53;;;;;;;;;;2107617;28;20039;-62
2023/01/24 03:42:31;;;;;;;7.57;5.60;;;;;;;;;;2107458;28;20024;-62
2023/01/24 03:43:32;;;;;;;7.32;5.50;;;;;;;;;;2107620;28;20023;-62
2023/01/24 03:44:32;;;;;;;7.07;5.38;;;;;;;;;;2107431;28;20020;-63
2023/01/24 03:45:33;;;;;;;6.53;5.38;;;;;;;;;;2107507;28;20451;-63
2023/01/24 03:46:39;;;;;;;10.73;5.70;;;;;;;;;;2107468;28;20115;-63
2023/01/24 03:47:39;;;;;;;5.97;5.38;;;;;;;;;;2107583;28;20023;-63
2023/01/24 03:48:39;;;;;;;6.47;5.53;;;;;;;;;;2107519;28;20027;-63
2023/01/24 03:52:30;;;;;;;8.10;6.03;;;;;;;;;;2107381;28;20455;-63
2023/01/24 03:53:31;;;;;;;7.22;6.13;;;;;;;;;;2107446;28;20020;-63
2023/01/24 03:54:31;;;;;;;7.30;5.95;;;;;;;;;;2107453;28;20424;-63
2023/01/24 03:55:31;;;;;;;8.02;5.90;;;;;;;;;;2107355;28;20058;-63
2023/01/24 03:56:31;;;;;;;9.37;6.20;;;;;;;;;;2107387;28;20383;-63
2023/01/24 03:57:31;;;;;;;7.83;5.97;;;;;;;;;;2107313;28;20237;-63
2023/01/24 03:58:31;;;;;;;8.57;5.93;;;;;;;;;;2107435;28;20253;-63
2023/01/24 03:59:32;;;;;;;8.43;6.28;;;;;;;;;;2107378;28;20245;-62
2023/01/24 04:00:32;;;;;;;6.93;5.40;;;;;;;;;;2107423;28;20081;-63
2023/01/24 04:01:32;;;;;;;7.07;5.47;;;;;;;;;;2106691;28;20016;-63
2023/01/24 04:02:32;;;;;;;7.07;5.63;;;;;;;;;;2106725;28;20024;-63
2023/01/24 04:03:33;;;;;;;7.07;5.77;;;;;;;;;;2107303;28;20062;-63
2023/01/24 04:05:51;;;;;;;8.02;5.68;;;;;;;;;;2107324;28;20019;-63
2023/01/24 04:06:51;;;;;;;7.45;5.80;;;;;;;;;;2107384;28;20498;-63
2023/01/24 04:07:55;;;;;;;7.97;5.95;;;;;;;;;;2107234;28;20095;-63
2023/01/24 04:08:55;;;;;;;8.18;6.13;;;;;;;;;;2107223;28;20022;-63
2023/01/24 04:09:57;;;;;;;7.10;5.75;;;;;;;;;;2107257;28;20020;-63
2023/01/24 04:10:58;;;;;;;8.63;5.72;;;;;;;;;;2106733;28;20020;-63
2023/01/24 04:11:58;;;;;;;8.05;5.15;;;;;;;;;;2106672;28;20020;-63
2023/01/24 04:12:58;;;;;;;6.50;5.57;;;;;;;;;;2107333;28;20367;-64
2023/01/24 04:13:58;;;;;;;7.45;5.03;;;;;;;;;;2107126;28;20237;-63
2023/01/24 04:14:58;;;;;;;6.78;5.43;;;;;;;;;;2107284;28;20020;-62
2023/01/24 04:15:58;;;;;;;6.97;5.57;;;;;;;;;;2107307;28;20028;-62
2023/01/24 04:16:58;;;;;;;10.60;6.13;;;;;;;;;;2107285;28;20237;-63
2023/01/24 04:18:00;;;;;;;9.35;5.15;;;;;;;;;;2107047;28;20237;-62
2023/01/24 04:19:00;;;;;;;5.75;4.88;;;;;;;;;;2107450;28;20099;-63
2023/01/24 04:20:00;;;;;;;7.07;5.10;;;;;;;;;;2107206;28;20024;-63
2023/01/24 04:21:01;;;;;;;6.00;5.03;;;;;;;;;;2107372;28;20371;-63
2023/01/24 04:22:01;;;;;;;7.07;5.25;;;;;;;;;;2106521;28;20016;-63
2023/01/24 04:23:05;;;;;;;6.97;5.00;;;;;;;;;;2106665;28;20521;-63
2023/01/24 04:24:05;;;;;;;6.15;4.68;;;;;;;;;;2107107;28;20344;-63
2023/01/24 04:25:06;;;;;;;6.10;5.03;;;;;;;;;;2107217;28;20097;-63
2023/01/24 04:26:06;;;;;;;7.60;4.93;;;;;;;;;;2106720;28;20028;-63
2023/01/24 04:27:06;;;;;;;5.85;5.03;;;;;;;;;;2107554;28;20061;-63
2023/01/24 04:28:07;;;;;;;5.38;4.45;;;;;;;;;;2107094;28;20024;-62
2023/01/24 04:29:07;;;;;;;6.57;5.05;;;;;;;;;;2107090;28;20024;-62
2023/01/24 04:30:08;;;;;;;6.18;4.97;;;;;;;;;;2107427;28;20035;-63
2023/01/24 04:31:08;;;;;;;7.30;5.30;;;;;;;;;;2106963;28;20017;-62
2023/01/24 04:32:08;;;;;;;6.13;4.93;;;;;;;;;;2107144;28;20048;-63
2023/01/24 04:33:08;;;;;;;7.53;5.07;;;;;;;;;;2107152;28;20032;-63
2023/01/24 04:34:08;;;;;;;6.38;5.72;;;;;;;;;;2107359;28;20023;-62
2023/01/24 04:35:14;;;;;;;6.53;5.35;;;;;;;;;;2106701;28;20016;-63
2023/01/24 04:36:15;;;;;;;8.45;5.93;;;;;;;;;;2107391;28;20020;-62
2023/01/24 04:37:15;;;;;;;8.75;5.63;;;;;;;;;;2107109;28;20038;-62
2023/01/24 04:38:15;;;;;;;7.13;5.55;;;;;;;;;;2107162;28;20050;-63
2023/01/24 04:39:15;;;;;;;6.63;5.55;;;;;;;;;;2106983;28;20024;-62
2023/01/24 04:40:16;;;;;;;6.80;5.35;;;;;;;;;;2107149;28;20371;-63
2023/01/24 04:41:16;;;;;;;9.05;5.50;;;;;;;;;;2106990;28;20024;-63
2023/01/24 04:42:16;;;;;;;7.83;5.60;;;;;;;;;;2107135;28;20102;-62
2023/01/24 04:43:16;;;;;;;8.73;5.85;;;;;;;;;;2107065;28;20278;-63
2023/01/24 04:44:16;;;;;;;6.38;5.43;;;;;;;;;;2107121;28;20024;-63
2023/01/24 04:45:16;;;;;;;11.07;5.93;;;;;;;;;;2107022;28;20462;-63
2023/01/24 04:46:16;;;;;;;6.47;5.65;;;;;;;;;;2106583;28;20603;-62
2023/01/24 04:47:16;;;;;;;6.30;5.22;;;;;;;;;;2106433;28;20034;-63
2023/01/24 04:48:17;;;;;;;6.68;5.50;;;;;;;;;;2106968;28;20085;-63
2023/01/24 04:49:17;;;;;;;6.35;5.45;;;;;;;;;;2107012;28;20023;-62
2023/01/24 04:50:17;;;;;;;9.05;5.07;;;;;;;;;;2107230;28;20454;-62
2023/01/24 04:51:17;;;;;;;5.63;5.13;;;;;;;;;;2107174;28;20458;-62
2023/01/24 04:52:17;;;;;;;8.65;5.78;;;;;;;;;;2107125;28;20028;-62
2023/01/24 04:53:17;;;;;;;9.90;6.07;;;;;;;;;;2106950;28;20020;-62
2023/01/24 04:54:18;;;;;;;10.00;5.30;;;;;;;;;;2106994;28;20323;-63
2023/01/24 04:55:18;;;;;;;7.22;6.13;;;;;;;;;;2107072;28;20098;-62
2023/01/24 04:56:18;;;;;;;6.75;5.55;;;;;;;;;;2107231;28;20048;-62
2023/01/24 04:57:18;;;;;;;5.75;5.15;;;;;;;;;;2106912;28;20096;-62
2023/01/24 04:58:18;;;;;;;7.45;5.75;;;;;;;;;;2106415;28;20048;-62
2023/01/24 04:59:18;;;;;;;6.28;5.65;;;;;;;;;;2106482;28;20059;-61
2023/01/24 05:00:19;;;;;;;6.37;5.70;;;;;;;;;;2106871;28;20024;-63
2023/01/24 05:01:19;;;;;;;9.52;6.28;;;;;;;;;;2107049;28;20241;-63
2023/01/24 05:02:19;;;;;;;7.93;6.07;;;;;;;;;;2107019;28;20028;-63
2023/01/24 05:03:19;;;;;;;6.53;5.57;;;;;;;;;;2107050;28;20020;-62
2023/01/24 05:04:19;;;;;;;8.40;6.00;;;;;;;;;;2106957;28;20313;-62
2023/01/24 05:05:19;;;;;;;8.45;5.75;;;;;;;;;;2107066;28;20711;-62
2023/01/24 05:06:19;;;;;;;7.97;6.00;;;;;;;;;;2106948;28;20027;-63
2023/01/24 05:07:20;;;;;;;8.35;6.03;;;;;;;;;;2106972;28;20370;-62
2023/01/24 05:08:20;;;;;;;9.50;5.85;;;;;;;;;;2106998;28;20036;-62
2023/01/24 05:09:20;;;;;;;7.78;5.55;;;;;;;;;;2107049;28;20477;-63
2023/01/24 05:10:23;;;;;;;9.98;5.90;;;;;;;;;;2106991;28;20031;-63
2023/01/24 05:11:23;;;;;;;6.90;5.75;;;;;;;;;;2107029;28;20435;-62
2023/01/24 05:12:23;;;;;;;7.90;6.15;;;;;;;;;;2106977;28;20020;-62
2023/01/24 05:13:24;;;;;;;7.33;5.70;;;;;;;;;;2107044;28;20472;-63
2023/01/24 05:14:24;;;;;;;9.60;6.13;;;;;;;;;;2107039;28;20264;-62
2023/01/24 05:15:25;;;;;;;7.03;5.82;;;;;;;;;;2106980;28;20028;-62
2023/01/24 05:16:26;;;;;;;9.43;6.20;;;;;;;;;;2107021;28;20017;-62
2023/01/24 05:17:26;;;;;;;7.20;6.20;;;;;;;;;;2107179;28;20046;-63
2023/01/24 05:18:26;;;;;;;9.05;6.40;;;;;;;;;;2107031;28;20367;-63
2023/01/24 05:19:26;;;;;;;6.93;5.97;;;;;;;;;;2107189;28;20440;-62
2023/01/24 05:20:26;;;;;;;8.77;6.10;;;;;;;;;;2106889;28;20636;-63
2023/01/24 05:21:26;;;;;;;7.45;6.20;;;;;;;;;;2106330;28;20052;-63
2023/01/24 05:22:27;;;;;;;8.70;6.33;;;;;;;;;;2106420;28;20095;-63
2023/01/24 05:23:28;;;;;;;7.90;5.82;;;;;;;;;;2106974;28;20244;-62
2023/01/24 05:24:28;;;;;;;7.97;6.40;;;;;;;;;;2106954;28;20046;-62
2023/01/24 05:25:28;;;;;;;8.45;7.05;;;;;;;;;;2106992;28;20034;-63
2023/01/24 05:26:28;;;;;;;9.85;7.40;;;;;;;;;;2105950;28;20122;-62
2023/01/24 05:27:28;;;;;;;10.65;7.28;;;;;;;;;;2106434;28;20515;-63
2023/01/24 05:28:28;;;;;;;9.07;6.60;;;;;;;;;;2106978;28;20059;-62
2023/01/24 05:29:29;;;;;;;8.98;5.97;;;;;;;;;;2106930;28;20248;-62
2023/01/24 05:30:29;;;;;;;7.47;6.40;;;;;;;;;;2107130;28;20040;-63
2023/01/24 05:31:29;;;;;;;9.20;6.38;;;;;;;;;;2106880;28;20251;-63
2023/01/24 05:32:29;;;;;;;7.07;6.00;;;;;;;;;;2106969;28;20032;-63
2023/01/24 05:33:29;;;;;;;6.93;6.10;;;;;;;;;;2106896;28;20022;-63
2023/01/24 05:34:29;;;;;;;9.30;6.82;;;;;;;;;;2106904;28;20470;-63
2023/01/24 05:35:30;;;;;;;10.35;6.03;;;;;;;;;;2106891;28;20028;-62
2023/01/24 05:36:30;;;;;;;7.47;6.00;;;;;;;;;;2106976;28;20016;-62
2023/01/24 05:37:30;;;;;;;8.00;6.13;;;;;;;;;;2106878;28;20020;-63
2023/01/24 05:38:31;;;;;;;9.25;6.50;;;;;;;;;;2106938;28;20031;-62
2023/01/24 05:39:31;;;;;;;8.23;6.10;;;;;;;;;;2106798;28;20024;-63
2023/01/24 05:40:31;;;;;;;8.80;6.80;;;;;;;;;;2106915;28;20500;-63
2023/01/24 05:41:31;;;;;;;8.05;6.60;;;;;;;;;;2106945;28;20588;-63
2023/01/24 05:42:31;;;;;;;9.05;5.95;;;;;;;;;;2106926;28;20084;-62
2023/01/24 05:43:32;;;;;;;10.43;6.80;;;;;;;;;;2106917;28;20100;-63
2023/01/24 05:44:32;;;;;;;8.02;6.32;;;;;;;;;;2106562;28;20031;-63
2023/01/24 05:45:32;;;;;;;8.45;6.43;;;;;;;;;;2106216;28;20028;-63
2023/01/24 05:46:32;;;;;;;7.38;6.10;;;;;;;;;;2106908;28;20479;-63
2023/01/24 05:47:32;;;;;;;7.40;6.10;;;;;;;;;;2107379;28;20024;-63
2023/01/24 05:48:32;;;;;;;8.25;5.53;;;;;;;;;;2107698;28;20074;-63
2023/01/24 05:49:32;;;;;;;13.73;6.90;;;;;;;;;;2108419;28;20024;-63
2023/01/24 05:50:33;;;;;;;8.77;6.63;;;;;;;;;;2108411;28;20020;-62
2023/01/24 05:51:33;;;;;;;7.95;6.30;;;;;;;;;;2108236;28;20028;-63
2023/01/24 05:52:33;;;;;;;6.72;5.40;;;;;;;;;;2108403;28;20024;-63
2023/01/24 05:53:34;;;;;;;9.20;6.10;;;;;;;;;;2108369;28;20028;-63
2023/01/24 05:54:34;;;;;;;8.05;6.40;;;;;;;;;;2108374;28;20701;-63
2023/01/24 05:55:35;;;;;;;8.20;6.23;;;;;;;;;;2108370;28;20106;-62
2023/01/24 05:56:35;;;;;;;7.22;6.40;;;;;;;;;;2108479;28;20244;-62
2023/01/24 05:57:36;;;;;;;7.88;6.78;;;;;;;;;;2108345;28;20031;-63
2023/01/24 05:58:37;;;;;;;7.28;6.53;;;;;;;;;;2107636;28;20035;-63
2023/01/24 05:59:37;;;;;;;10.82;7.15;;;;;;;;;;2107782;28;20150;-63
2023/01/24 06:00:37;;;;;;;8.20;6.47;;;;;;;;;;2108268;28;20370;-62
2023/01/24 06:01:37;;;;;;;9.50;6.70;;;;;;;;;;2108455;28;20044;-63
2023/01/24 06:02:37;;;;;;;10.95;7.43;;;;;;;;;;2108271;28;20061;-62
2023/01/24 06:03:38;;;;;;;8.50;6.65;;;;;;;;;;2108448;28;20103;-62
2023/01/24 06:04:38;;;;;;;8.55;7.07;;;;;;;;;;2108256;28;20370;-62
2023/01/24 06:05:38;;;;;;;11.48;8.05;;;;;;;;;;2108298;28;20453;-61
2023/01/24 06:06:39;;;;;;;8.60;7.13;;;;;;;;;;2108226;28;20027;-62
2023/01/24 06:07:39;;;;;;;7.85;6.35;;;;;;;;;;2108302;28;20024;-62
2023/01/24 06:08:39;;;;;;;8.43;6.88;;;;;;;;;;2108152;28;20441;-62
2023/01/24 06:09:39;;;;;;;7.80;6.88;;;;;;;;;;2108276;28;20031;-62
2023/01/24 06:10:39;;;;;;;9.50;7.38;;;;;;;;;;2108257;28;20043;-62
2023/01/24 06:11:40;;;;;;;8.07;6.43;;;;;;;;;;2107616;28;20019;-62
2023/01/24 06:12:40;;;;;;;9.00;6.88;;;;;;;;;;2107633;28;20136;-63
2023/01/24 06:13:40;;;;;;;8.13;7.20;;;;;;;;;;2107751;28;20516;-63
2023/01/24 06:14:40;;;;;;;9.93;7.45;;;;;;;;;;2108143;28;20032;-63
2023/01/24 06:15:41;;;;;;;9.35;7.72;;;;;;;;;;2108354;28;20043;-63
2023/01/24 06:16:42;;;;;;;10.65;8.02;;;;;;;;;;2108127;28;20025;-63
2023/01/24 06:17:42;;;;;;;10.02;7.35;;;;;;;;;;2108027;28;20023;-63
2023/01/24 06:18:42;;;;;;;8.25;7.30;;;;;;;;;;2108156;28;20027;-63
2023/01/24 06:19:43;;;;;;;10.70;8.00;;;;;;;;;;2108088;28;20023;-62
2023/01/24 06:20:43;;;;;;;9.15;7.10;;;;;;;;;;2108347;28;20024;-61
2023/01/24 06:21:44;;;;;;;9.52;6.78;;;;;;;;;;2108149;28;20091;-62
2023/01/24 06:22:48;;;;;;;9.20;6.78;;;;;;;;;;2107422;28;20023;-61
2023/01/24 06:23:48;;;;;;;9.95;7.15;;;;;;;;;;2107659;28;20103;-62
2023/01/24 06:24:48;;;;;;;7.85;7.05;;;;;;;;;;2108226;28;20443;-62
2023/01/24 06:25:49;;;;;;;10.02;6.78;;;;;;;;;;2108339;28;20024;-62
2023/01/24 06:26:49;;;;;;;9.13;7.15;;;;;;;;;;2107705;28;20556;-61
2023/01/24 06:27:50;;;;;;;12.25;7.40;;;;;;;;;;2107773;28;20059;-62
2023/01/24 06:28:50;;;;;;;9.45;7.72;;;;;;;;;;2108191;28;20024;-62
2023/01/24 06:29:51;;;;;;;10.68;8.63;;;;;;;;;;2108085;28;20367;-62
2023/01/24 06:30:57;;;;;;;15.07;8.60;;;;;;;;;;2108126;28;20048;-62
2023/01/24 06:32:20;;;;;;;14.75;8.75;;;;;;;;;;2108089;28;20019;-62
2023/01/24 06:33:20;;;;;;;9.85;7.50;;;;;;;;;;2108146;28;20028;-62
2023/01/24 06:34:26;;;;;;;9.97;7.33;;;;;;;;;;2108255;28;20081;-62
2023/01/24 06:35:45;;;;;;;7.63;6.63;;;;;;;;;;2108046;28;20352;-62
2023/01/24 06:36:48;;;;;;;8.63;7.00;;;;;;;;;;2107338;28;20442;-62
2023/01/24 06:37:51;;;;;;;14.93;7.80;;;;;;;;;;2104757;28;20016;-62
2023/01/24 06:38:51;;;;;;;8.88;6.90;;;;;;;;;;2099167;28;20108;-63
2023/01/24 06:39:52;;;;;;;8.32;6.60;;;;;;;;;;2104813;28;20016;-63
2023/01/24 06:40:55;;;;;;;8.07;6.50;;;;;;;;;;2108257;28;20370;-63
2023/01/24 06:41:55;;;;;;;10.18;7.28;;;;;;;;;;2107944;28;20016;-63
2023/01/24 06:42:56;;;;;;;9.65;6.38;;;;;;;;;;2104718;28;20458;-63